Time;durP1;ratioP1;P1;durP2;ratioP2;P2;SDS_P1;SDS_P2;PMS_P1;PMS_P2;Temp;Humidity;BMP_temperature;BMP_pressure;BME280_temperature;BME280_humidity;BME280_pressure;Samples;Min_cycle;Max_cycle;Signal;HPM_P1;HPM_P2
2021/07/04 00:02:04;;;;;;;;;;;22.10;62.60;;;;;;5033858;28;19921;-77
2021/07/04 00:04:30;;;;;;;;;;;22.10;62.60;;;;;;5022165;28;19925;-77
2021/07/04 00:06:55;;;;;;;;;;;22.10;62.50;;;;;;5029539;28;19921;-76
2021/07/04 00:09:21;;;;;;;;;;;22.10;62.50;;;;;;5039712;28;19928;-75
2021/07/04 00:11:46;;;;;;;;;;;22.10;62.50;;;;;;5023387;28;20593;-77
2021/07/04 00:14:12;;;;;;;;;;;22.10;62.50;;;;;;5035000;28;19917;-76
2021/07/04 00:16:37;;;;;;;;;;;22.10;62.50;;;;;;5004357;28;19920;-75
2021/07/04 00:19:02;;;;;;;;;;;22.10;62.40;;;;;;5041915;28;19921;-76
2021/07/04 00:21:28;;;;;;;;;;;22.10;62.40;;;;;;5012050;28;19922;-75
2021/07/04 00:23:53;;;;;;;;;;;22.10;62.40;;;;;;4994772;28;19954;-77
2021/07/04 00:26:19;;;;;;;;;;;22.10;62.40;;;;;;4999776;28;19923;-77
2021/07/04 00:28:44;;;;;;;;;;;22.10;62.40;;;;;;5025146;28;19917;-77
2021/07/04 00:31:10;;;;;;;;;;;22.10;62.40;;;;;;5034636;28;19929;-75
2021/07/04 00:33:35;;;;;;;;;;;22.10;62.40;;;;;;5036333;28;19921;-77
2021/07/04 00:36:01;;;;;;;;;;;22.10;62.30;;;;;;5012669;28;20508;-77
2021/07/04 00:38:26;;;;;;;;;;;22.10;62.40;;;;;;5036758;28;20155;-74
2021/07/04 00:40:52;;;;;;;;;;;22.10;62.30;;;;;;5038744;28;19924;-77
2021/07/04 00:43:17;;;;;;;;;;;22.10;62.20;;;;;;5008788;28;19925;-75
2021/07/04 00:45:43;;;;;;;;;;;22.10;62.20;;;;;;5014823;28;19932;-77
2021/07/04 00:48:08;;;;;;;;;;;22.10;62.20;;;;;;5022554;28;19921;-77
2021/07/04 00:50:34;;;;;;;;;;;22.10;62.20;;;;;;5033769;28;19929;-77
2021/07/04 00:52:59;;;;;;;;;;;22.10;62.20;;;;;;5015425;28;19921;-76
2021/07/04 00:55:25;;;;;;;;;;;22.10;62.10;;;;;;5032229;28;19925;-76
2021/07/04 00:57:50;;;;;;;;;;;22.10;62.20;;;;;;5021882;28;19932;-77
2021/07/04 01:00:17;;;;;;;;;;;22.10;62.20;;;;;;5037743;28;20635;-77
2021/07/04 01:02:42;;;;;;;;;;;22.10;62.20;;;;;;5020895;28;20354;-76
2021/07/04 01:05:09;;;;;;;;;;;22.10;62.10;;;;;;5029659;28;19950;-76
2021/07/04 01:07:35;;;;;;;;;;;22.10;62.20;;;;;;4997596;28;19921;-76
2021/07/04 01:10:00;;;;;;;;;;;22.10;62.10;;;;;;5013776;28;19921;-77
2021/07/04 01:12:26;;;;;;;;;;;22.10;62.00;;;;;;5010874;28;19925;-76
2021/07/04 01:14:51;;;;;;;;;;;22.10;62.00;;;;;;5031430;28;19925;-75
2021/07/04 01:17:17;;;;;;;;;;;22.10;61.90;;;;;;5034309;28;19999;-77
2021/07/04 01:19:42;;;;;;;;;;;22.10;62.00;;;;;;5021558;28;19928;-77
2021/07/04 01:22:07;;;;;;;;;;;22.10;62.00;;;;;;5018257;28;19928;-75
2021/07/04 01:24:33;;;;;;;;;;;22.10;62.00;;;;;;5018308;28;19925;-77
2021/07/04 01:26:58;;;;;;;;;;;22.10;62.00;;;;;;5015275;28;19917;-74
2021/07/04 01:29:24;;;;;;;;;;;22.10;62.00;;;;;;5032409;28;20493;-77
2021/07/04 01:31:49;;;;;;;;;;;22.10;62.00;;;;;;5039226;28;19932;-77
2021/07/04 01:34:15;;;;;;;;;;;22.10;61.90;;;;;;5024715;28;19948;-74
2021/07/04 01:36:40;;;;;;;;;;;22.10;61.90;;;;;;5040021;28;19996;-77
2021/07/04 01:39:06;;;;;;;;;;;22.10;62.10;;;;;;5026860;28;20410;-77
2021/07/04 01:41:33;;;;;;;;;;;22.10;61.90;;;;;;5017090;28;19918;-77
2021/07/04 01:43:58;;;;;;;;;;;22.10;62.10;;;;;;5021195;28;20012;-77
2021/07/04 01:46:24;;;;;;;;;;;22.10;62.00;;;;;;5038060;28;19924;-74
2021/07/04 01:48:49;;;;;;;;;;;22.10;61.90;;;;;;5019281;28;19925;-77
2021/07/04 01:51:14;;;;;;;;;;;22.10;61.90;;;;;;5044319;28;19921;-77
2021/07/04 01:53:40;;;;;;;;;;;22.10;61.90;;;;;;4999595;28;19975;-76
2021/07/04 01:56:07;;;;;;;;;;;22.10;61.80;;;;;;5034250;28;20545;-77
2021/07/04 01:58:33;;;;;;;;;;;22.10;61.80;;;;;;5018882;28;19929;-77
2021/07/04 02:00:59;;;;;;;;;;;22.10;61.90;;;;;;5021242;28;20748;-77
2021/07/04 02:03:24;;;;;;;;;;;22.10;61.90;;;;;;5025120;28;19982;-78
2021/07/04 02:05:49;;;;;;;;;;;22.10;61.70;;;;;;5042302;28;19928;-77
2021/07/04 02:08:15;;;;;;;;;;;22.10;61.70;;;;;;5040080;28;19924;-77
2021/07/04 02:10:40;;;;;;;;;;;22.10;61.70;;;;;;5036315;28;20027;-77
2021/07/04 02:13:07;;;;;;;;;;;22.10;61.70;;;;;;5012717;28;19921;-77
2021/07/04 02:15:33;;;;;;;;;;;22.10;61.70;;;;;;5016794;28;20614;-77
2021/07/04 02:18:02;;;;;;;;;;;22.10;61.70;;;;;;5028752;28;19929;-77
2021/07/04 02:20:31;;;;;;;;;;;22.00;61.60;;;;;;5008180;28;19920;-77
2021/07/04 02:22:57;;;;;;;;;;;22.00;61.60;;;;;;5032535;28;19920;-77
2021/07/04 02:25:23;;;;;;;;;;;22.00;61.60;;;;;;5019297;28;20746;-78
2021/07/04 02:27:48;;;;;;;;;;;22.00;61.50;;;;;;5008112;28;19970;-77
2021/07/04 02:30:14;;;;;;;;;;;22.10;61.60;;;;;;5019080;28;19921;-75
2021/07/04 02:32:39;;;;;;;;;;;22.10;61.70;;;;;;5022332;28;19921;-77
2021/07/04 02:35:05;;;;;;;;;;;22.00;61.60;;;;;;5004659;28;19924;-77
2021/07/04 02:37:30;;;;;;;;;;;22.00;61.50;;;;;;5030963;28;19922;-77
2021/07/04 02:39:56;;;;;;;;;;;22.10;61.50;;;;;;5016976;28;19918;-77
2021/07/04 02:42:21;;;;;;;;;;;22.00;61.50;;;;;;5019770;28;20673;-78
2021/07/04 02:44:47;;;;;;;;;;;22.00;61.50;;;;;;5006467;28;20023;-77
2021/07/04 02:47:12;;;;;;;;;;;22.10;61.60;;;;;;5042316;28;19974;-77
2021/07/04 02:49:38;;;;;;;;;;;22.00;61.40;;;;;;5045015;28;19920;-75
2021/07/04 02:52:03;;;;;;;;;;;22.00;61.50;;;;;;5043148;28;20440;-76
2021/07/04 02:54:29;;;;;;;;;;;22.00;61.50;;;;;;5043682;28;19998;-76
2021/07/04 02:56:54;;;;;;;;;;;22.00;61.40;;;;;;5037913;28;19921;-75
2021/07/04 02:59:19;;;;;;;;;;;22.00;61.40;;;;;;5006843;28;20302;-76
2021/07/04 03:01:45;;;;;;;;;;;22.00;61.40;;;;;;5045307;28;19917;-77
2021/07/04 03:04:11;;;;;;;;;;;22.00;61.30;;;;;;5017400;28;19932;-76
2021/07/04 03:06:37;;;;;;;;;;;22.00;61.40;;;;;;5039388;28;19921;-77
2021/07/04 03:09:02;;;;;;;;;;;22.00;61.40;;;;;;5038854;28;19939;-77
2021/07/04 03:11:28;;;;;;;;;;;22.00;61.30;;;;;;5025318;28;19925;-76
2021/07/04 03:13:53;;;;;;;;;;;22.00;61.50;;;;;;5003231;28;19924;-76
2021/07/04 03:16:18;;;;;;;;;;;22.00;61.40;;;;;;5023153;28;19974;-75
2021/07/04 03:18:44;;;;;;;;;;;22.00;61.30;;;;;;5037218;28;19929;-76
2021/07/04 03:21:09;;;;;;;;;;;22.00;61.30;;;;;;5002968;28;20583;-77
2021/07/04 03:23:35;;;;;;;;;;;22.00;61.30;;;;;;5034580;28;19921;-76
2021/07/04 03:26:00;;;;;;;;;;;22.00;61.30;;;;;;5045213;28;19924;-77
2021/07/04 03:28:26;;;;;;;;;;;22.00;61.30;;;;;;5045028;28;20557;-76
2021/07/04 03:30:51;;;;;;;;;;;22.00;61.30;;;;;;5043082;28;19917;-76
2021/07/04 03:33:17;;;;;;;;;;;22.00;61.20;;;;;;5025589;28;19963;-77
2021/07/04 03:35:42;;;;;;;;;;;22.00;61.30;;;;;;5026334;28;19932;-75
2021/07/04 03:38:08;;;;;;;;;;;22.00;61.20;;;;;;5026107;28;19925;-76
2021/07/04 03:40:33;;;;;;;;;;;22.00;61.30;;;;;;5036185;28;19928;-77
2021/07/04 03:42:58;;;;;;;;;;;22.00;61.20;;;;;;5009373;28;19929;-77
2021/07/04 03:45:24;;;;;;;;;;;22.00;61.20;;;;;;4999499;28;20287;-76
2021/07/04 03:47:49;;;;;;;;;;;22.00;61.10;;;;;;4997185;28;19917;-76
2021/07/04 03:50:15;;;;;;;;;;;22.10;61.00;;;;;;5018744;28;19921;-77
2021/07/04 03:52:41;;;;;;;;;;;22.00;61.00;;;;;;5025505;28;19925;-76
2021/07/04 03:55:07;;;;;;;;;;;22.00;61.10;;;;;;5014622;28;19921;-77
2021/07/04 03:57:32;;;;;;;;;;;22.00;61.10;;;;;;5019877;28;19921;-76
2021/07/04 03:59:58;;;;;;;;;;;22.00;61.00;;;;;;5020996;28;19921;-75
2021/07/04 04:02:24;;;;;;;;;;;22.00;61.10;;;;;;5036882;28;19982;-75
2021/07/04 04:04:52;;;;;;;;;;;22.00;61.10;;;;;;5023876;28;19925;-77
2021/07/04 04:07:18;;;;;;;;;;;22.00;61.10;;;;;;5000517;28;20053;-77
2021/07/04 04:09:43;;;;;;;;;;;22.00;61.10;;;;;;5041093;28;19917;-77
2021/07/04 04:12:09;;;;;;;;;;;22.00;61.10;;;;;;5041027;28;19921;-76
2021/07/04 04:14:34;;;;;;;;;;;22.00;61.30;;;;;;5015746;28;19944;-76
2021/07/04 04:17:00;;;;;;;;;;;22.00;61.20;;;;;;5041190;28;20187;-77
2021/07/04 04:19:25;;;;;;;;;;;22.00;61.30;;;;;;5034910;28;19925;-77
2021/07/04 04:21:51;;;;;;;;;;;22.00;61.20;;;;;;5037997;28;20426;-76
2021/07/04 04:24:16;;;;;;;;;;;22.00;61.30;;;;;;5020656;28;19927;-77
2021/07/04 04:26:42;;;;;;;;;;;22.00;61.20;;;;;;5031818;28;19963;-77
2021/07/04 04:29:07;;;;;;;;;;;22.00;61.30;;;;;;5022362;28;19917;-76
2021/07/04 04:31:33;;;;;;;;;;;22.00;61.30;;;;;;5031096;28;20443;-76
2021/07/04 04:33:58;;;;;;;;;;;22.00;61.30;;;;;;5037979;28;19966;-76
2021/07/04 04:36:24;;;;;;;;;;;22.00;61.30;;;;;;5023287;28;19924;-76
2021/07/04 04:38:50;;;;;;;;;;;22.00;61.30;;;;;;5020904;28;19956;-76
2021/07/04 04:41:15;;;;;;;;;;;22.00;61.30;;;;;;5006146;28;20527;-76
2021/07/04 04:43:41;;;;;;;;;;;22.00;61.10;;;;;;5022073;28;19925;-76
2021/07/04 04:46:06;;;;;;;;;;;22.00;61.00;;;;;;5019564;28;19978;-75
2021/07/04 04:48:31;;;;;;;;;;;22.00;61.00;;;;;;5032330;28;19921;-76
2021/07/04 04:50:57;;;;;;;;;;;22.00;61.20;;;;;;5017663;28;19917;-77
2021/07/04 04:53:22;;;;;;;;;;;22.00;61.20;;;;;;5030710;28;19978;-75
2021/07/04 04:55:48;;;;;;;;;;;22.00;61.20;;;;;;5030706;28;19936;-77
2021/07/04 04:58:13;;;;;;;;;;;22.00;61.30;;;;;;5000068;28;20627;-76
2021/07/04 05:00:39;;;;;;;;;;;22.00;61.20;;;;;;5018197;28;20287;-77
2021/07/04 05:03:07;;;;;;;;;;;22.00;61.30;;;;;;5022648;28;19921;-75
2021/07/04 05:05:32;;;;;;;;;;;22.00;61.20;;;;;;5024101;28;19929;-77
2021/07/04 05:07:58;;;;;;;;;;;22.00;61.30;;;;;;5004186;28;20414;-77
2021/07/04 05:10:23;;;;;;;;;;;22.00;61.10;;;;;;5027089;28;19921;-76
2021/07/04 05:12:49;;;;;;;;;;;22.00;61.10;;;;;;4993307;28;20666;-77
2021/07/04 05:15:14;;;;;;;;;;;22.00;61.10;;;;;;5000804;28;19927;-74
2021/07/04 05:17:40;;;;;;;;;;;22.00;61.20;;;;;;5013970;23;19926;-63
2021/07/04 05:20:06;;;;;;;;;;;22.00;61.10;;;;;;4945531;28;19948;-63
2021/07/04 05:22:31;;;;;;;;;;;22.00;61.30;;;;;;4987447;28;19921;-63
2021/07/04 05:24:57;;;;;;;;;;;22.00;61.30;;;;;;4984558;28;20008;-63
2021/07/04 05:27:22;;;;;;;;;;;22.00;61.30;;;;;;5003583;28;19922;-63
2021/07/04 05:29:47;;;;;;;;;;;22.00;61.50;;;;;;4974139;28;20160;-63
2021/07/04 05:32:13;;;;;;;;;;;22.00;61.30;;;;;;4970891;28;19977;-63
2021/07/04 05:34:38;;;;;;;;;;;22.00;61.60;;;;;;4972644;28;19922;-64
2021/07/04 05:37:04;;;;;;;;;;;22.00;61.60;;;;;;4969985;28;19922;-63
2021/07/04 05:39:29;;;;;;;;;;;22.00;61.70;;;;;;4973629;28;20355;-63
2021/07/04 05:41:55;;;;;;;;;;;22.00;61.70;;;;;;4972839;28;19922;-63
2021/07/04 05:44:20;;;;;;;;;;;22.00;61.80;;;;;;4975807;28;19983;-63
2021/07/04 05:46:46;;;;;;;;;;;22.00;61.80;;;;;;4976336;28;20672;-63
2021/07/04 05:49:12;;;;;;;;;;;22.00;61.60;;;;;;4968237;28;20307;-63
2021/07/04 05:51:37;;;;;;;;;;;22.00;61.70;;;;;;4974227;28;19924;-62
2021/07/04 05:56:30;;;;;;;;;;;22.00;61.60;;;;;;4980795;28;19929;-72
2021/07/04 05:58:56;;;;;;;;;;;22.00;61.50;;;;;;4964481;28;19917;-72
2021/07/04 06:01:21;;;;;;;;;;;22.00;61.60;;;;;;4976686;28;19922;-71
2021/07/04 06:03:47;;;;;;;;;;;21.90;61.60;;;;;;4982786;28;20548;-70
2021/07/04 06:06:12;;;;;;;;;;;22.00;61.70;;;;;;4980796;28;19936;-71
2021/07/04 06:08:38;;;;;;;;;;;22.00;61.70;;;;;;4981661;28;20300;-70
2021/07/04 06:11:03;;;;;;;;;;;21.90;61.80;;;;;;5002860;22;20285;-76
2021/07/04 06:13:29;;;;;;;;;;;22.00;61.80;;;;;;5022295;28;19917;-76
2021/07/04 06:15:54;;;;;;;;;;;21.90;61.90;;;;;;5043124;28;20339;-79
2021/07/04 06:18:20;;;;;;;;;;;21.90;61.90;;;;;;5014890;28;19924;-76
2021/07/04 06:20:45;;;;;;;;;;;22.00;62.10;;;;;;4999732;28;19917;-77
2021/07/04 06:23:10;;;;;;;;;;;22.00;62.20;;;;;;5028740;28;21908;-76
2021/07/04 06:25:36;;;;;;;;;;;21.90;62.50;;;;;;5019576;28;20393;-77
2021/07/04 06:28:01;;;;;;;;;;;21.90;62.80;;;;;;5018903;28;19924;-76
2021/07/04 06:30:27;;;;;;;;;;;21.90;63.00;;;;;;5011014;28;20017;-77
2021/07/04 06:32:52;;;;;;;;;;;22.00;63.40;;;;;;5030092;28;19917;-75
2021/07/04 06:35:18;;;;;;;;;;;21.90;63.40;;;;;;4997217;28;19917;-76
2021/07/04 06:37:43;;;;;;;;;;;22.00;63.60;;;;;;5014944;28;19978;-76
2021/07/04 06:40:09;;;;;;;;;;;22.00;63.60;;;;;;5012899;28;20598;-76
2021/07/04 06:42:34;;;;;;;;;;;22.00;63.60;;;;;;5018435;28;19948;-77
2021/07/04 06:45:00;;;;;;;;;;;21.90;63.70;;;;;;5036180;28;19925;-77
2021/07/04 06:47:25;;;;;;;;;;;21.90;63.80;;;;;;5014959;28;20398;-76
2021/07/04 06:49:51;;;;;;;;;;;21.90;63.90;;;;;;5013901;28;19918;-76
2021/07/04 06:52:16;;;;;;;;;;;21.90;63.90;;;;;;5019035;28;20048;-75
2021/07/04 06:54:42;;;;;;;;;;;21.90;64.10;;;;;;5020471;28;19940;-76
2021/07/04 06:59:51;;;;;;;;;;;22.00;64.10;;;;;;5027032;28;19932;-75
2021/07/04 07:02:17;;;;;;;;;;;21.90;64.20;;;;;;5012127;28;19921;-76
2021/07/04 07:04:42;;;;;;;;;;;22.00;64.40;;;;;;5008565;28;20382;-74
2021/07/04 07:07:08;;;;;;;;;;;22.00;64.40;;;;;;5010820;28;19918;-76
2021/07/04 07:09:33;;;;;;;;;;;21.90;64.30;;;;;;4989989;28;19921;-77
2021/07/04 07:11:58;;;;;;;;;;;22.00;64.30;;;;;;5029787;28;19921;-76
2021/07/04 07:14:24;;;;;;;;;;;22.00;64.30;;;;;;5012648;28;19978;-76
2021/07/04 07:16:49;;;;;;;;;;;21.90;64.20;;;;;;5011900;28;19931;-76
2021/07/04 07:19:15;;;;;;;;;;;21.90;64.20;;;;;;4993657;28;20382;-76
2021/07/04 07:21:41;;;;;;;;;;;21.90;64.20;;;;;;5027884;28;19929;-76
2021/07/04 07:24:07;;;;;;;;;;;21.90;64.10;;;;;;4989570;28;20040;-76
2021/07/04 07:26:32;;;;;;;;;;;22.00;64.00;;;;;;4991802;28;20008;-77
2021/07/04 07:28:58;;;;;;;;;;;21.90;63.90;;;;;;4991447;28;20381;-76
2021/07/04 07:31:23;;;;;;;;;;;21.90;63.80;;;;;;5006667;28;19917;-77
2021/07/04 07:33:49;;;;;;;;;;;21.90;63.90;;;;;;4993549;28;19925;-76
2021/07/04 07:36:14;;;;;;;;;;;22.00;63.90;;;;;;5026855;28;19924;-76
2021/07/04 07:38:40;;;;;;;;;;;21.90;63.70;;;;;;5029954;28;20559;-76
2021/07/04 07:41:05;;;;;;;;;;;21.90;63.60;;;;;;5010418;28;19920;-76
2021/07/04 07:43:30;;;;;;;;;;;21.90;64.20;;;;;;5009725;28;19917;-76
2021/07/04 07:45:56;;;;;;;;;;;21.90;63.60;;;;;;5009723;28;20538;-76
2021/07/04 07:48:21;;;;;;;;;;;21.90;63.50;;;;;;5028750;28;19932;-75
2021/07/04 07:50:47;;;;;;;;;;;21.90;63.50;;;;;;4991643;28;19925;-76
2021/07/04 07:53:12;;;;;;;;;;;21.90;63.40;;;;;;5027541;28;19921;-75
2021/07/04 07:55:38;;;;;;;;;;;21.90;63.40;;;;;;5011465;28;20329;-76
2021/07/04 07:58:03;;;;;;;;;;;21.90;63.40;;;;;;5009163;28;19924;-76
2021/07/04 08:00:29;;;;;;;;;;;21.90;63.40;;;;;;5010195;28;19924;-76
2021/07/04 08:02:54;;;;;;;;;;;21.90;63.40;;;;;;5010023;28;19917;-75
2021/07/04 08:05:19;;;;;;;;;;;21.90;63.40;;;;;;5025436;28;19925;-75
2021/07/04 08:07:45;;;;;;;;;;;21.90;63.40;;;;;;5011906;28;19921;-76
2021/07/04 08:10:12;;;;;;;;;;;21.90;63.40;;;;;;5010536;28;19925;-76
2021/07/04 08:12:39;;;;;;;;;;;21.90;63.40;;;;;;5036102;28;20390;-76
2021/07/04 08:15:05;;;;;;;;;;;21.90;63.40;;;;;;5026091;28;19925;-76
2021/07/04 08:17:30;;;;;;;;;;;21.90;63.50;;;;;;5013585;28;20414;-76
2021/07/04 08:19:56;;;;;;;;;;;21.90;63.40;;;;;;5008836;28;19917;-76
2021/07/04 08:22:21;;;;;;;;;;;21.90;63.30;;;;;;5039687;28;19924;-76
2021/07/04 08:24:46;;;;;;;;;;;21.90;63.40;;;;;;5007641;28;19932;-76
2021/07/04 08:27:12;;;;;;;;;;;21.90;63.30;;;;;;5028112;28;19917;-76
2021/07/04 08:29:37;;;;;;;;;;;21.90;63.40;;;;;;5025598;28;19917;-76
2021/07/04 08:32:03;;;;;;;;;;;21.90;63.40;;;;;;5024803;28;19932;-76
2021/07/04 08:34:28;;;;;;;;;;;21.90;63.40;;;;;;5028681;28;19917;-75
2021/07/04 08:36:54;;;;;;;;;;;21.90;63.40;;;;;;5006998;28;19921;-75
2021/07/04 08:39:19;;;;;;;;;;;21.90;63.40;;;;;;5007879;28;19917;-75
2021/07/04 08:41:45;;;;;;;;;;;21.90;63.40;;;;;;5037610;28;19981;-76
2021/07/04 08:44:10;;;;;;;;;;;21.90;63.40;;;;;;5000767;28;19917;-75
2021/07/04 08:46:42;;;;;;;;;;;21.90;63.40;;;;;;5011803;28;19917;-75
2021/07/04 08:49:07;;;;;;;;;;;21.90;63.30;;;;;;5008279;28;19979;-76
2021/07/04 08:51:33;;;;;;;;;;;21.90;63.30;;;;;;5009271;28;19921;-75
2021/07/04 08:53:58;;;;;;;;;;;21.90;63.30;;;;;;5016262;28;19923;-75
2021/07/04 08:56:24;;;;;;;;;;;21.90;63.30;;;;;;4990801;28;19917;-75
2021/07/04 08:58:49;;;;;;;;;;;21.90;63.30;;;;;;5008546;28;19971;-75
2021/07/04 09:01:15;;;;;;;;;;;21.90;63.30;;;;;;5008584;28;19921;-76
2021/07/04 09:03:43;;;;;;;;;;;21.90;63.30;;;;;;5007748;28;19924;-76
2021/07/04 09:06:09;;;;;;;;;;;21.90;63.20;;;;;;5007558;28;19925;-75
2021/07/04 09:08:36;;;;;;;;;;;21.90;63.20;;;;;;5026772;28;19917;-76
2021/07/04 09:11:28;;;;;;;;;;;21.90;63.20;;;;;;5028997;28;19917;-76
2021/07/04 09:13:53;;;;;;;;;;;21.90;63.20;;;;;;5003397;28;20015;-76
2021/07/04 09:16:24;;;;;;;;;;;21.90;63.20;;;;;;5007049;28;19931;-76
2021/07/04 09:19:21;;;;;;;;;;;21.90;63.20;;;;;;5015560;28;19917;-75
2021/07/04 09:22:06;;;;;;;;;;;21.90;63.10;;;;;;4982852;28;19917;-76
2021/07/04 09:24:33;;;;;;;;;;;22.00;63.10;;;;;;5007201;28;19932;-75
2021/07/04 09:26:58;;;;;;;;;;;21.90;63.00;;;;;;5025301;28;19979;-75
2021/07/04 09:29:42;;;;;;;;;;;21.90;63.00;;;;;;4993778;28;20506;-75
2021/07/04 09:32:26;;;;;;;;;;;21.90;63.00;;;;;;5021304;28;19931;-75
2021/07/04 09:35:13;;;;;;;;;;;21.90;63.00;;;;;;5010096;28;20513;-75
2021/07/04 09:37:43;;;;;;;;;;;21.90;63.00;;;;;;5024918;28;19979;-75
2021/07/04 09:40:08;;;;;;;;;;;22.00;63.00;;;;;;5008189;28;20378;-75
2021/07/04 09:42:34;;;;;;;;;;;22.00;63.00;;;;;;5026265;28;20007;-75
2021/07/04 09:44:59;;;;;;;;;;;21.90;62.80;;;;;;5012996;28;19925;-75
2021/07/04 09:47:25;;;;;;;;;;;21.90;62.90;;;;;;5026398;28;20318;-76
2021/07/04 09:49:59;;;;;;;;;;;21.90;62.80;;;;;;5013440;28;20397;-75
2021/07/04 09:52:25;;;;;;;;;;;21.90;62.80;;;;;;5014694;28;20006;-76
2021/07/04 09:54:57;;;;;;;;;;;22.00;62.80;;;;;;5012236;28;19968;-76
2021/07/04 09:57:22;;;;;;;;;;;22.00;62.80;;;;;;4997592;28;19952;-75
2021/07/04 09:59:48;;;;;;;;;;;22.00;62.80;;;;;;5018683;28;19952;-76
2021/07/04 10:02:14;;;;;;;;;;;22.00;62.90;;;;;;5019421;28;19924;-75
2021/07/04 10:04:40;;;;;;;;;;;21.90;62.90;;;;;;5036955;28;19942;-74
2021/07/04 10:07:05;;;;;;;;;;;22.00;62.90;;;;;;5035513;28;19917;-73
2021/07/04 10:09:31;;;;;;;;;;;22.00;62.80;;;;;;5012622;28;19917;-75
2021/07/04 10:11:56;;;;;;;;;;;22.00;62.80;;;;;;5008402;28;20501;-74
2021/07/04 10:14:22;;;;;;;;;;;22.00;62.60;;;;;;5024258;28;20079;-74
2021/07/04 10:16:47;;;;;;;;;;;22.00;62.50;;;;;;4999383;28;20017;-74
2021/07/04 10:19:22;;;;;;;;;;;22.00;62.30;;;;;;5014216;28;19917;-75
2021/07/04 10:21:51;;;;;;;;;;;22.00;62.30;;;;;;4998094;28;19925;-74
2021/07/04 10:24:16;;;;;;;;;;;22.00;62.30;;;;;;5026767;28;19925;-77
2021/07/04 10:26:42;;;;;;;;;;;22.00;62.40;;;;;;4990005;28;19917;-76
2021/07/04 10:29:07;;;;;;;;;;;22.00;63.10;;;;;;5014200;28;19917;-74
2021/07/04 10:31:33;;;;;;;;;;;22.00;62.50;;;;;;5013622;28;19917;-74
2021/07/04 10:34:05;;;;;;;;;;;22.00;62.50;;;;;;5019342;28;19925;-74
2021/07/04 10:36:32;;;;;;;;;;;22.00;62.60;;;;;;5015672;28;19917;-74
2021/07/04 10:39:03;;;;;;;;;;;22.00;62.60;;;;;;5012134;28;19921;-75
2021/07/04 10:41:28;;;;;;;;;;;22.00;62.60;;;;;;5013926;28;19925;-75
2021/07/04 10:44:09;;;;;;;;;;;22.00;62.60;;;;;;5028077;28;20062;-75
2021/07/04 10:46:44;;;;;;;;;;;22.10;62.70;;;;;;5025147;28;19928;-76
2021/07/04 10:49:10;;;;;;;;;;;22.00;62.60;;;;;;5026172;28;20294;-75
2021/07/04 10:51:51;;;;;;;;;;;22.00;62.50;;;;;;5028999;28;19917;-76
2021/07/04 10:54:21;;;;;;;;;;;22.10;62.50;;;;;;5008226;28;21312;-75
2021/07/04 10:56:46;;;;;;;;;;;22.10;62.40;;;;;;4995417;28;19991;-74
2021/07/04 10:59:12;;;;;;;;;;;22.10;62.40;;;;;;5027053;28;20336;-76
2021/07/04 11:01:50;;;;;;;;;;;22.10;62.40;;;;;;5014929;28;19924;-76
2021/07/04 11:04:28;;;;;;;;;;;22.10;62.40;;;;;;5027710;28;19918;-75
2021/07/04 11:06:54;;;;;;;;;;;22.10;62.50;;;;;;5029660;28;19920;-75
2021/07/04 11:09:19;;;;;;;;;;;22.10;62.50;;;;;;5012420;28;20546;-75
2021/07/04 11:11:44;;;;;;;;;;;22.10;62.60;;;;;;5012587;28;19921;-76
2021/07/04 11:14:10;;;;;;;;;;;22.10;62.50;;;;;;5031858;28;19923;-74
2021/07/04 11:16:35;;;;;;;;;;;22.10;62.60;;;;;;5033903;28;20299;-74
2021/07/04 11:19:08;;;;;;;;;;;22.10;62.50;;;;;;5018670;28;19925;-74
2021/07/04 11:21:47;;;;;;;;;;;22.10;62.60;;;;;;4999370;28;19960;-76
2021/07/04 11:24:12;;;;;;;;;;;22.10;62.70;;;;;;5000270;28;19952;-75
2021/07/04 11:26:38;;;;;;;;;;;22.10;62.50;;;;;;5026982;28;20406;-75
2021/07/04 11:29:09;;;;;;;;;;;22.10;62.40;;;;;;5008267;28;19926;-75
2021/07/04 11:31:35;;;;;;;;;;;22.10;62.30;;;;;;5025492;28;19935;-75
2021/07/04 11:34:02;;;;;;;;;;;22.10;62.20;;;;;;5019395;22;19925;-75
2021/07/04 11:36:27;;;;;;;;;;;22.10;62.10;;;;;;5006318;28;19918;-75
2021/07/04 11:39:09;;;;;;;;;;;22.10;62.10;;;;;;4995555;28;19995;-75
2021/07/04 11:41:34;;;;;;;;;;;22.10;62.00;;;;;;4976233;28;19923;-75
2021/07/04 11:44:01;;;;;;;;;;;22.10;61.90;;;;;;5006651;28;19921;-75
2021/07/04 11:46:28;;;;;;;;;;;22.10;61.90;;;;;;4989626;28;19921;-76
2021/07/04 11:48:59;;;;;;;;;;;22.20;61.90;;;;;;4971072;28;19940;-75
2021/07/04 11:51:28;;;;;;;;;;;22.10;61.70;;;;;;5016046;28;19917;-76
2021/07/04 11:54:04;;;;;;;;;;;22.10;61.70;;;;;;4993768;28;19917;-76
2021/07/04 11:56:29;;;;;;;;;;;22.10;61.80;;;;;;4993038;28;19918;-75
2021/07/04 11:59:04;;;;;;;;;;;22.20;61.90;;;;;;4996582;28;19917;-75
2021/07/04 12:01:30;;;;;;;;;;;22.20;61.80;;;;;;5010500;28;19945;-75
2021/07/04 12:03:55;;;;;;;;;;;22.20;61.90;;;;;;5016696;28;20428;-76
2021/07/04 12:06:24;;;;;;;;;;;22.20;61.80;;;;;;5010418;28;19928;-76
2021/07/04 12:08:56;;;;;;;;;;;22.20;62.20;;;;;;5009588;28;19949;-76
2021/07/04 12:11:40;;;;;;;;;;;22.20;61.90;;;;;;4997489;28;19928;-75
2021/07/04 12:14:24;;;;;;;;;;;22.20;61.70;;;;;;5010454;28;19948;-75
2021/07/04 12:16:50;;;;;;;;;;;22.20;61.70;;;;;;5016184;28;19925;-75
2021/07/04 12:19:26;;;;;;;;;;;22.20;61.60;;;;;;5009032;28;19981;-76
2021/07/04 12:21:52;;;;;;;;;;;22.20;61.60;;;;;;4984884;28;19917;-75
2021/07/04 12:24:17;;;;;;;;;;;22.20;61.50;;;;;;4992282;28;20135;-76
2021/07/04 12:26:46;;;;;;;;;;;22.20;61.50;;;;;;4994127;28;19928;-75
2021/07/04 12:29:11;;;;;;;;;;;22.20;61.50;;;;;;5008234;28;20063;-76
2021/07/04 12:31:37;;;;;;;;;;;22.20;61.30;;;;;;5012116;28;19929;-76
2021/07/04 12:34:02;;;;;;;;;;;22.20;61.40;;;;;;4991307;28;19929;-75
2021/07/04 12:36:29;;;;;;;;;;;22.20;61.40;;;;;;4976942;28;20004;-76
2021/07/04 12:38:56;;;;;;;;;;;22.30;61.50;;;;;;4976617;28;20456;-76
2021/07/04 12:41:21;;;;;;;;;;;22.30;61.40;;;;;;5004745;28;19971;-76
2021/07/04 12:43:47;;;;;;;;;;;22.20;61.20;;;;;;4978678;28;19918;-75
2021/07/04 12:46:17;;;;;;;;;;;22.30;61.30;;;;;;4988079;28;20575;-76
2021/07/04 12:48:49;;;;;;;;;;;22.30;61.20;;;;;;5004084;28;20007;-75
2021/07/04 12:51:15;;;;;;;;;;;22.30;61.20;;;;;;5009379;28;20002;-76
2021/07/04 12:53:41;;;;;;;;;;;22.30;61.20;;;;;;4996957;28;19917;-75
2021/07/04 12:56:20;;;;;;;;;;;22.30;61.00;;;;;;4990912;28;19921;-76
2021/07/04 12:58:54;;;;;;;;;;;22.30;61.00;;;;;;5009694;28;20019;-76
2021/07/04 13:01:38;;;;;;;;;;;22.30;61.00;;;;;;5008792;28;19917;-75
2021/07/04 13:04:04;;;;;;;;;;;22.30;60.90;;;;;;5002722;28;19968;-74
2021/07/04 13:06:49;;;;;;;;;;;22.30;60.90;;;;;;5013338;28;19922;-76
2021/07/04 13:09:15;;;;;;;;;;;22.30;60.80;;;;;;4946965;28;19921;-75
2021/07/04 13:11:41;;;;;;;;;;;22.30;60.80;;;;;;4992227;28;19917;-75
2021/07/04 13:14:07;;;;;;;;;;;22.30;60.70;;;;;;4994494;28;19917;-76
2021/07/04 13:16:33;;;;;;;;;;;22.30;60.60;;;;;;5010489;28;19922;-76
2021/07/04 13:19:16;;;;;;;;;;;22.40;60.60;;;;;;5008780;28;19939;-76
2021/07/04 13:21:42;;;;;;;;;;;22.30;60.60;;;;;;5008122;28;19925;-76
2021/07/04 13:24:17;;;;;;;;;;;22.40;60.70;;;;;;5004575;28;19921;-76
2021/07/04 13:26:43;;;;;;;;;;;22.40;60.60;;;;;;4996219;28;19932;-77
2021/07/04 13:29:13;;;;;;;;;;;22.40;60.50;;;;;;4991038;28;19925;-76
2021/07/04 13:31:38;;;;;;;;;;;22.40;60.50;;;;;;5009602;28;20467;-76
2021/07/04 13:34:18;;;;;;;;;;;22.40;60.40;;;;;;5015577;28;19921;-76
2021/07/04 13:36:53;;;;;;;;;;;22.40;60.50;;;;;;4990326;28;19917;-76
2021/07/04 13:39:19;;;;;;;;;;;22.40;60.50;;;;;;5010825;28;19922;-77
2021/07/04 13:41:44;;;;;;;;;;;22.40;60.40;;;;;;5020535;28;19924;-78
2021/07/04 13:44:10;;;;;;;;;;;22.40;60.50;;;;;;5012054;28;19928;-76
2021/07/04 13:46:35;;;;;;;;;;;22.50;60.60;;;;;;5032225;28;19917;-76
2021/07/04 13:49:01;;;;;;;;;;;22.50;60.60;;;;;;5006432;28;19914;-76
2021/07/04 13:51:26;;;;;;;;;;;22.50;60.70;;;;;;5010351;28;19925;-77
2021/07/04 13:53:52;;;;;;;;;;;22.50;60.70;;;;;;4989318;28;19913;-76
2021/07/04 13:56:17;;;;;;;;;;;22.50;60.70;;;;;;5014282;28;20263;-76
2021/07/04 13:58:43;;;;;;;;;;;22.50;60.70;;;;;;4994539;28;19913;-76
2021/07/04 14:01:08;;;;;;;;;;;22.50;60.70;;;;;;5017791;28;19979;-76
2021/07/04 14:03:33;;;;;;;;;;;22.50;60.70;;;;;;5015031;28;19925;-75
2021/07/04 14:05:59;;;;;;;;;;;22.50;60.80;;;;;;4999141;28;20282;-75
2021/07/04 14:08:24;;;;;;;;;;;22.50;60.70;;;;;;5016002;28;19913;-75
2021/07/04 14:10:50;;;;;;;;;;;22.50;60.80;;;;;;5024116;28;19913;-75
2021/07/04 14:13:16;;;;;;;;;;;22.50;60.80;;;;;;5006833;28;19920;-77
2021/07/04 14:15:41;;;;;;;;;;;22.50;60.80;;;;;;5006310;28;19952;-75
2021/07/04 14:18:06;;;;;;;;;;;22.60;60.90;;;;;;5006637;28;19914;-77
2021/07/04 14:20:32;;;;;;;;;;;22.50;60.90;;;;;;4988638;28;19923;-74